首页
METAR-TAF:

METAR-TAF

机场 :

阿卡普尔科, 墨西哥

纬度: 16-46N, 经度: 099-45W, 海拔: 5米

当前天气观测

该预报发布于48分钟前的13:46 UTC
风速4节,风向
温度 27°C
湿度 79%
气压 1013 hPa
能見度: 8.0公里
少量云层高于8000英尺
多云层高于30000英尺

METAR: MMAA 241346Z 01004KT 5SM FEW080 BKN300 27/23 A2991 RMK 8/032 HZY

时间: 09:34 (14:34 UTC)

预报

该预报发布于4小时和15分钟前的10:19 UTC
预报有效从24日的 12点(UTC)到 25日的 18点(UTC)
风速5节,风向西
能見度: 9.7公里
多云层高于30000英尺
从 24日的 1800点(UTC)
风速10节,风向西南
能見度: 9.7公里
多云层高于30000英尺
从 25日的 0400点(UTC)
风速5节,风向西南
能見度: 9.7公里
多云层高于30000英尺
从 25日的 1800点(UTC)
风速10节,风向西南
能見度: 9.7公里
散云层高于2000英尺
多云层高于30000英尺

TAF: MMAA 241019Z 2412/2518 26005KT 6SM HZ BKN300 TX31/2418Z TN25/2412Z FM241800 23010KT 6SM HZ BKN300 FM250400 23005KT 6SM HZ BKN300 FM251800 23010KT 6SM HZ SCT020 BKN300

超过4000个机场的气象观测和天气预报(METAR&TAF报告)。

可查询的气象台以黄色和红色小点在地图上表示。

将鼠标移到小点上方,可查看气象台名称。

然后点击查看天气观测和预报。

如需切换地图:点击带黑十字的绿色按钮放大地图;点击带横线的绿色按钮缩小地图;或者点击绿色箭头查看邻近地区的地图。


METAR-TAF: